Tisch Mills, Wisconsin
Current Conditions -  °F | °C
As of 1:56 AM on Wednesday 26 Nov 2014 (Local Time) from KMTW Reporting Station
Overcast Overcast  
Wind Chill: 18°   Ceiling: 1600
Heat Index: 18°   Visibility: 10mi
Dew Point: 15°   Wind: 0mph
Humidity: 88%   Direction: NA
Pressure: 30.19"   Gusts: NA
Location:  44.33°N, 87.62°W
Report Text: KMTW 260756Z AUTO 00000KT 10SM OVC016 M08/M09 A3019 RMK AO2 SLP251 T10781094 FZRANO
Loading
Personal Weather Stations






























Interactive Weather Map New forecast layout! Learn more

10-Day Weather Forecast

Advertisements
Track Severe Weather on mobile